Latest Weather Observations for Larapuna (Eddystone Point)

IDT60801

Issued at 7:35 am EDT Sunday 26 October 2014 (issued every 30 minutes, with the page automatically refreshed every 10 minutes)

About weather observations | Map of weather stations | Latest weather observations for TAS | Other Formats
Station Details ID: 092045 Name: LARAPUNA (EDDYSTONE POINT) Lat: -40.99 Lon: 148.35 Height: 19.7 m
Data from the previous 72 hours. | See also: Recent months at Larapuna (Eddystone Point)
Date/Time
EDT
Temp
°C
App
Temp
°C
Dew
Point
Rel
Hum
%
Delta-T
°C
Wind Press
QNH
hPa
Press
MSL
hPa
Rain
since 9 am
mm
Dir
 
Spd
km/h
Gust
km/h
Spd
kts
Gust
kts
26/07:30am 14.3 13.4 12.5 89 1.0 SE 9 11 5 6 1013.7 1013.7 0.0
26/07:00am 14.3 12.2 12.5 89 1.0 ESE 15 17 8 9 1013.3 1013.3 0.0
26/06:30am 14.2 11.7 12.4 89 1.0 ESE 17 17 9 9 1013.4 1013.4 0.0
26/06:00am 14.1 12.4 12.3 89 1.0 E 13 15 7 8 1013.5 1013.5 0.0
26/05:30am 14.0 12.6 12.2 89 1.0 E 11 15 6 8 1013.1 1013.1 0.0
26/05:00am 14.0 12.6 12.2 89 1.0 ESE 11 15 6 8 1013.3 1013.3 0.0
26/04:30am 14.0 13.0 12.2 89 1.0 E 9 11 5 6 1013.4 1013.4 0.0
26/04:00am 14.0 11.5 12.2 89 1.0 E 17 19 9 10 1013.0 1013.0 0.0
26/03:30am 14.0 12.6 12.2 89 1.0 E 11 13 6 7 1013.9 1013.9 0.0
26/03:00am 14.1 12.3 12.1 88 1.1 ESE 13 15 7 8 1014.7 1014.7 0.0
26/02:30am 14.1 13.0 12.0 87 1.1 ESE 9 11 5 6 1015.2 1015.2 0.0
26/02:00am 14.1 13.0 12.0 87 1.1 E 9 11 5 6 1015.4 1015.4 0.0
26/01:30am 14.1 13.3 11.8 86 1.2 E 7 9 4 5 1015.8 1015.8 0.0
26/01:00am 14.2 13.0 11.7 85 1.3 E 9 13 5 7 1016.3 1016.3 0.0
26/12:30am 14.2 12.6 11.4 83 1.5 E 11 15 6 8 1016.4 1016.4 0.0
26/12:00am 14.2 11.7 11.2 82 1.6 E 15 19 8 10 1016.6 1016.6 0.0
 
Date/Time
EDT
Temp
°C
App
Temp
°C
Dew
Point
Rel
Hum
%
Delta-T
°C
Wind Press
QNH
hPa
Press
MSL
hPa
Rain
since 9 am
mm
Dir
 
Spd
km/h
Gust
km/h
Spd
kts
Gust
kts
25/11:30pm 14.2 11.0 11.4 83 1.5 E 19 22 10 12 1016.5 1016.5 0.0
25/11:00pm 14.2 10.8 11.4 83 1.5 ENE 20 24 11 13 1016.5 1016.5 0.0
25/10:30pm 14.3 11.0 11.5 83 1.5 ENE 20 24 11 13 1017.1 1017.1 0.0
25/10:00pm 14.4 11.1 11.6 83 1.5 E 20 24 11 13 1017.4 1017.4 0.0
25/09:30pm 14.4 11.3 11.6 83 1.5 E 19 22 10 12 1017.7 1017.7 0.0
25/09:00pm 14.3 11.5 11.3 82 1.6 E 17 24 9 13 1017.7 1017.7 0.0
25/08:30pm 14.4 11.7 11.6 83 1.5 E 17 22 9 12 1017.4 1017.4 0.0
25/08:00pm 14.5 10.9 11.8 84 1.5 E 22 28 12 15 1016.8 1016.8 0.0
25/07:30pm 14.6 11.0 11.7 83 1.6 E 22 28 12 15 1016.4 1016.4 0.0
25/07:00pm 14.8 11.8 11.8 82 1.6 ESE 19 24 10 13 1016.5 1016.5 0.0
25/06:30pm 14.9 11.7 11.9 82 1.6 ESE 20 26 11 14 1016.2 1016.2 0.0
25/06:00pm 15.0 11.9 12.1 83 1.6 ESE 20 24 11 13 1016.3 1016.3 0.0
25/05:30pm 15.2 11.7 12.1 82 1.7 ESE 22 26 12 14 1016.0 1016.0 0.0
25/05:00pm 15.7 12.9 12.5 81 1.8 ESE 19 24 10 13 1016.0 1016.0 0.0
25/04:30pm 16.4 13.5 12.8 79 2.0 ESE 20 24 11 13 1015.8 1015.8 0.0
25/04:00pm 17.1 14.1 13.6 80 2.0 ESE 22 26 12 14 1015.5 1015.5 0.0
25/03:30pm 16.6 13.7 12.9 79 2.1 ESE 20 28 11 15 1015.5 1015.5 0.0
25/03:00pm 16.8 14.0 13.1 79 2.1 E 20 26 11 14 1015.4 1015.4 0.0
25/02:30pm 17.9 15.9 14.0 78 2.2 E 17 24 9 13 1015.7 1015.7 0.0
25/02:00pm 17.5 15.9 13.8 79 2.1 E 15 24 8 13 1016.1 1016.1 0.0
25/01:30pm 16.9 15.3 13.8 82 1.8 ESE 15 20 8 11 1016.2 1016.2 0.0
25/01:00pm 16.8 15.7 14.3 85 1.4 ESE 13 17 7 9 1016.0 1016.0 0.0
25/12:30pm 16.4 15.9 13.9 85 1.4 SE 9 11 5 6 1016.0 1016.0 0.0
25/12:00pm 17.1 17.0 14.0 82 1.8 SE 7 11 4 6 1016.0 1016.0 0.0
25/11:30am 17.3 16.1 14.0 81 1.9 SSE 13 15 7 8 1016.1 1016.1 0.0
25/11:00am 17.5 17.1 14.2 81 1.9 SE 9 13 5 7 1016.0 1016.0 0.0
25/10:30am 18.0 16.5 14.3 79 2.1 S 15 17 8 9 1015.5 1015.5 0.0
25/10:00am 18.6 17.2 15.5 82 1.8 S 17 20 9 11 1015.5 1015.5 0.0
25/09:30am 17.4 16.4 15.6 89 1.1 SSW 15 15 8 8 1015.2 1015.2 0.0
25/09:00am 16.8 16.5 15.5 92 0.8 S 11 15 6 8 1014.8 1014.8 0.0
25/08:30am 15.9 16.7 14.9 94 0.6 WNW 4 7 2 4 1014.4 1014.4 0.0
25/08:00am 15.1 16.5 14.3 95 0.5 CALM 0 6 0 3 1013.9 1013.9 0.0
25/07:30am 14.0 13.4 13.4 96 0.3 W 9 13 5 7 1013.4 1013.4 0.0
25/07:00am 13.2 11.2 12.6 96 0.3 NW 15 19 8 10 1012.9 1012.9 0.0
25/06:30am 13.0 10.9 12.4 96 0.3 NW 15 19 8 10 1012.5 1012.5 0.0
25/06:00am 13.0 10.9 12.4 96 0.3 NW 15 17 8 9 1011.8 1011.8 0.0
25/05:30am 13.4 11.4 12.6 95 0.4 NW 15 17 8 9 1011.1 1011.1 0.0
25/05:00am 13.4 12.1 12.6 95 0.4 NNW 11 15 6 8 1010.7 1010.7 0.0
25/04:30am 13.4 12.1 12.6 95 0.4 W 11 19 6 10 1010.4 1010.4 0.0
25/04:00am 13.9 12.8 13.1 95 0.4 W 11 19 6 10 1010.1 1010.1 0.0
25/03:30am 14.4 14.3 13.8 96 0.3 W 7 13 4 7 1009.9 1009.9 0.0
25/03:00am 14.1 13.9 13.5 96 0.3 SSW 7 13 4 7 1009.0 1009.0 0.0
25/02:30am 14.3 11.7 13.7 96 0.3 WNW 20 33 11 18 1008.7 1008.7 0.0
25/02:00am 14.5 9.7 13.9 96 0.3 WNW 32 46 17 25 1008.6 1008.6 0.0
25/01:30am 14.7 10.7 14.1 96 0.3 WNW 28 39 15 21 1009.1 1009.1 0.0
25/01:26am 14.8 10.8 14.2 96 0.3 WNW 28 37 15 20 1009.0 1009.0 0.0
25/01:00am 14.6 13.0 14.0 96 0.3 NW 15 19 8 10 1009.1 1009.1 0.0
25/12:30am 14.9 13.0 14.3 96 0.3 WNW 17 26 9 14 1009.3 1009.3 0.0
25/12:00am 15.1 12.7 14.5 96 0.3 NW 20 32 11 17 1009.4 1009.4 0.0
 
Date/Time
EDT
Temp
°C
App
Temp
°C
Dew
Point
Rel
Hum
%
Delta-T
°C
Wind Press
QNH
hPa
Press
MSL
hPa
Rain
since 9 am
mm
Dir
 
Spd
km/h
Gust
km/h
Spd
kts
Gust
kts
24/11:30pm 15.3 13.2 14.7 96 0.3 NW 19 26 10 14 1009.3 1009.3 0.0
24/11:00pm 15.6 14.0 15.0 96 0.3 NW 17 24 9 13 1009.5 1009.5 0.0
24/10:30pm 15.0 13.6 14.4 96 0.3 NNW 15 20 8 11 1009.5 1009.5 0.0
24/10:00pm 14.7 13.5 14.1 96 0.3 NNW 13 19 7 10 1009.6 1009.6 0.0
24/09:30pm 14.7 13.5 14.1 96 0.3 N 13 15 7 8 1009.9 1009.9 0.0
24/09:00pm 14.8 13.6 14.0 95 0.5 N 13 17 7 9 1009.8 1009.8 0.0
24/08:30pm 15.0 14.3 14.2 95 0.5 N 11 15 6 8 1009.9 1009.9 0.0
24/08:00pm 15.2 14.1 14.4 95 0.5 NNW 13 17 7 9 1009.9 1009.9 0.0
24/07:30pm 15.2 13.0 14.4 95 0.5 N 19 22 10 12 1009.9 1009.9 0.0
24/07:00pm 15.4 12.6 14.4 94 0.6 NNE 22 26 12 14 1009.6 1009.6 0.0
24/06:30pm 15.7 11.9 14.7 94 0.6 NNE 28 33 15 18 1009.7 1009.7 0.0
24/06:00pm 15.5 12.0 14.4 93 0.6 NE 26 30 14 16 1010.1 1010.1 0.0
24/05:30pm 15.5 12.4 14.4 93 0.6 NE 24 28 13 15 1010.3 1010.3 0.0
24/05:00pm 15.5 12.3 14.2 92 0.7 NE 24 28 13 15 1010.9 1010.9 0.0
24/04:30pm 15.6 11.2 14.1 91 0.8 NE 30 35 16 19 1011.0 1011.0 0.0
24/04:00pm 15.6 11.2 14.0 90 0.9 ENE 30 37 16 20 1011.6 1011.6 0.0
24/03:30pm 15.7 10.9 14.1 90 0.9 ENE 32 37 17 20 1012.2 1012.2 0.0
24/03:00pm 15.8 10.8 14.0 89 1.0 NE 33 39 18 21 1012.8 1012.8 0.0
24/02:30pm 15.9 11.4 13.9 88 1.1 NE 30 37 16 20 1013.6 1013.6 0.0
24/02:00pm 16.0 12.0 14.0 88 1.1 ENE 28 32 15 17 1014.1 1014.1 0.0
24/01:30pm 16.5 13.0 14.5 88 1.1 ENE 26 32 14 17 1014.7 1014.7 0.0
24/01:00pm 16.0 12.4 14.2 89 1.0 NE 26 32 14 17 1015.2 1015.2 0.0
24/12:30pm 16.0 12.5 14.4 90 0.9 NE 26 32 14 17 1015.7 1015.7 0.0
24/12:00pm 15.7 11.7 14.2 91 0.8 NE 28 32 15 17 1016.3 1016.3 0.0
24/11:30am 15.5 11.5 14.0 91 0.8 ENE 28 32 15 17 1016.8 1016.8 0.0
24/11:00am 15.2 10.4 13.9 92 0.7 ENE 32 37 17 20 1017.2 1017.2 0.0
24/10:30am 15.2 10.4 13.9 92 0.7 NE 32 39 17 21 1017.7 1017.7 0.0
24/10:00am 14.8 9.6 13.5 92 0.7 ENE 33 43 18 23 1018.0 1018.0 0.0
24/09:30am 14.6 8.5 13.0 90 0.9 NE 37 46 20 25 1018.6 1018.6 0.0
24/09:00am 14.7 8.6 12.9 89 1.0 ENE 37 44 20 24 1019.0 1019.0 0.0
24/08:30am 14.6 8.8 12.6 88 1.1 ENE 35 43 19 23 1019.4 1019.4 0.0
24/08:00am 14.3 8.8 12.3 88 1.1 ENE 33 41 18 22 1019.8 1019.8 0.0
24/07:30am 14.2 7.8 12.1 87 1.1 ENE 37 43 20 23 1019.9 1019.9 0.0
24/07:00am 14.1 8.0 11.8 86 1.2 E 35 43 19 23 1019.9 1019.9 0.0
24/06:30am 14.0 8.2 11.5 85 1.3 E 33 39 18 21 1020.3 1020.3 0.0
24/06:00am 13.8 8.5 11.1 84 1.4 E 30 39 16 21 1020.6 1020.6 0.0
24/05:30am 13.7 7.7 10.7 82 1.6 E 33 41 18 22 1020.8 1020.8 0.0
24/05:00am 13.6 7.6 10.2 80 1.8 E 32 39 17 21 1021.1 1021.1 0.0
24/04:30am 13.5 6.8 9.7 78 1.9 E 35 41 19 22 1021.3 1021.3 0.0
24/04:00am 13.6 7.8 9.5 76 2.1 E 30 37 16 20 1021.7 1021.7 0.0
24/03:30am 13.5 8.8 9.2 75 2.2 E 24 30 13 16 1022.1 1022.1 0.0
24/03:00am 13.5 8.7 9.0 74 2.3 E 24 35 13 19 1022.1 1022.1 0.0
24/02:30am 13.3 8.1 8.8 74 2.3 E 26 33 14 18 1022.6 1022.6 0.0
24/02:00am 13.2 7.2 8.5 73 2.3 E 30 39 16 21 1022.8 1022.8 0.0
24/01:30am 13.1 8.6 8.4 73 2.3 E 22 28 12 15 1023.4 1023.4 0.0
24/01:00am 13.1 8.1 8.2 72 2.4 E 24 33 13 18 1023.9 1023.9 0.0
24/12:30am 13.0 7.2 7.9 71 2.5 E 28 39 15 21 1024.4 1024.4 0.0
24/12:00am 13.1 7.4 8.2 72 2.4 E 28 33 15 18 1024.6 1024.6 0.0
 
Date/Time
EDT
Temp
°C
App
Temp
°C
Dew
Point
Rel
Hum
%
Delta-T
°C
Wind Press
QNH
hPa
Press
MSL
hPa
Rain
since 9 am
mm
Dir
 
Spd
km/h
Gust
km/h
Spd
kts
Gust
kts
23/11:30pm 13.0 6.9 8.1 72 2.4 ESE 30 37 16 20 1025.0 1025.0 0.0
23/11:00pm 13.0 6.3 8.3 73 2.3 ESE 33 39 18 21 1025.2 1025.2 0.0
23/10:30pm 12.9 6.4 8.0 72 2.4 ESE 32 41 17 22 1025.5 1025.5 0.0
23/10:00pm 12.8 6.2 7.9 72 2.4 SE 32 39 17 21 1025.8 1025.8 0.0
23/09:30pm 12.9 6.8 8.2 73 2.3 SE 30 39 16 21 1025.6 1025.6 0.0
23/09:00pm 12.7 6.2 8.0 73 2.3 SE 32 41 17 22 1025.3 1025.3 0.0
23/08:30pm 12.7 6.6 8.2 74 2.2 SE 30 37 16 20 1025.0 1025.0 0.0
23/08:00pm 12.6 6.4 7.9 73 2.3 SE 30 44 16 24 1024.7 1024.7 0.0
23/07:30pm 12.4 5.2 7.7 73 2.3 SE 35 43 19 23 1024.7 1024.7 0.0
23/07:00pm 12.7 5.9 7.6 71 2.5 SE 33 43 18 23 1024.4 1024.4 0.0
23/06:30pm 13.0 5.4 7.7 70 2.6 SSE 37 48 20 26 1024.2 1024.2 0.0
23/06:00pm 13.5 6.7 7.9 69 2.8 SSE 33 43 18 23 1024.2 1024.2 0.0
23/05:30pm 13.7 6.1 7.7 67 3.0 SE 37 46 20 25 1024.0 1024.0 0.0
23/05:00pm 14.7 6.5 8.0 64 3.3 SSE 41 48 22 26 1024.1 1024.1 0.0
23/04:30pm 14.4 6.6 8.4 67 3.0 SSE 39 48 21 26 1023.9 1023.9 0.0
23/04:00pm 15.2 7.3 7.7 61 3.7 SSE 39 48 21 26 1023.9 1023.9 0.0
23/03:30pm 15.2 7.7 8.0 62 3.6 SSE 37 46 20 25 1023.9 1023.9 0.0
23/03:00pm 15.3 7.1 8.3 63 3.5 SSE 41 48 22 26 1024.0 1024.0 0.0
23/02:30pm 15.7 7.2 8.4 62 3.7 SSE 43 52 23 28 1024.0 1024.0 0.0
23/02:00pm 15.4 6.8 8.2 62 3.6 SSE 43 50 23 27 1024.2 1024.2 0.0
23/01:30pm 14.8 6.3 8.7 67 3.1 SSE 43 52 23 28 1024.2 1024.2 0.0
23/01:00pm 15.2 6.5 8.4 64 3.4 SSE 44 54 24 29 1024.0 1024.0 0.0
23/12:30pm 15.5 6.1 8.7 64 3.5 S 48 56 26 30 1023.9 1023.9 0.0
23/12:00pm 15.1 6.0 8.3 64 3.4 SSE 46 56 25 30 1024.1 1024.1 0.0
23/11:30am 14.7 5.4 9.1 69 2.9 S 48 57 26 31 1023.9 1023.9 0.0
23/11:00am 14.4 4.3 8.8 69 2.8 S 52 61 28 33 1024.0 1024.0 0.0
23/10:30am 14.8 4.3 8.7 67 3.1 S 54 63 29 34 1023.9 1023.9 0.0
23/10:00am 14.0 3.9 9.0 72 2.5 S 52 63 28 34 1023.7 1023.7 0.0
23/09:30am 13.5 2.5 8.4 71 2.5 S 56 63 30 34 1023.3 1023.3 0.0
23/09:00am 13.9 2.8 8.7 71 2.6 S 57 69 31 37 1022.9 1022.9 0.0
23/08:30am 13.2 1.7 8.7 74 2.3 S 59 70 32 38 1022.5 1022.5 0.0
23/08:00am 12.9 1.5 9.0 77 2.0 S 59 72 32 39 1022.1 1022.1 0.0

Other Formats:

Comma delimited format used in spreadsheet applications
http://www.bom.gov.au/fwo/IDT60801/IDT60801.94983.axf

JavaScript Object Notation format (JSON) in row-major order
http://www.bom.gov.au/fwo/IDT60801/IDT60801.94983.json